Time;durP1;ratioP1;P1;durP2;ratioP2;P2;SDS_P1;SDS_P2;PMS_P1;PMS_P2;Temp;Humidity;BMP_temperature;BMP_pressure;BME280_temperature;BME280_humidity;BME280_pressure;Samples;Min_cycle;Max_cycle;Signal;HPM_P1;HPM_P2
2022/02/10 00:06:44;;;;;;;20.10;13.52;;;;;;;;;;4942832;29;20716;-80
2022/02/10 00:14:57;;;;;;;18.30;13.88;;;;;;;;;;4961651;28;20203;-80
2022/02/10 00:22:40;;;;;;;19.83;14.38;;;;;;;;;;4966511;28;20230;-80
2022/02/10 00:36:10;;;;;;;22.63;15.13;;;;;;;;;;5011459;28;20560;-82
2022/02/10 00:38:41;;;;;;;19.60;14.13;;;;;;;;;;5039059;28;20225;-83
2022/02/10 00:41:07;;;;;;;25.73;15.07;;;;;;;;;;5045014;28;20181;-80
2022/02/10 00:43:33;;;;;;;19.27;14.27;;;;;;;;;;5042574;28;20206;-80
2022/02/10 00:45:59;;;;;;;20.35;15.88;;;;;;;;;;5021600;28;20284;-81
2022/02/10 00:48:25;;;;;;;18.77;14.75;;;;;;;;;;5037713;28;20183;-81
2022/02/10 00:50:52;;;;;;;18.52;13.63;;;;;;;;;;5023170;28;20171;-80
2022/02/10 00:53:31;;;;;;;19.88;14.52;;;;;;;;;;5020504;28;20179;-80
2022/02/10 00:55:57;;;;;;;18.45;14.30;;;;;;;;;;5046811;28;20186;-83
2022/02/10 00:58:29;;;;;;;18.85;15.60;;;;;;;;;;5042869;28;20194;-80
2022/02/10 01:30:28;;;;;;;21.42;16.48;;;;;;;;;;5019485;28;20241;-84
2022/02/10 01:32:57;;;;;;;21.83;18.10;;;;;;;;;;5044849;28;20190;-83
2022/02/10 01:35:25;;;;;;;21.05;15.52;;;;;;;;;;5055017;28;20196;-83
2022/02/10 01:37:51;;;;;;;20.85;14.40;;;;;;;;;;5012375;28;20225;-83
2022/02/10 01:40:34;;;;;;;24.00;16.00;;;;;;;;;;5055879;28;20237;-82
2022/02/10 02:04:51;;;;;;;24.77;16.55;;;;;;;;;;5012305;28;20201;-83
2022/02/10 02:07:26;;;;;;;24.05;16.35;;;;;;;;;;5049951;28;20204;-83
2022/02/10 02:09:52;;;;;;;22.70;17.05;;;;;;;;;;5023501;28;20189;-82
2022/02/10 02:12:18;;;;;;;18.80;16.13;;;;;;;;;;5046994;28;20190;-83
2022/02/10 02:14:44;;;;;;;22.70;15.80;;;;;;;;;;5025157;28;20182;-84
2022/02/10 02:17:10;;;;;;;26.45;17.35;;;;;;;;;;5057449;28;20658;-83
2022/02/10 02:19:36;;;;;;;20.25;16.80;;;;;;;;;;5054613;28;20189;-84
2022/02/10 02:22:02;;;;;;;22.73;16.40;;;;;;;;;;5032296;28;20210;-82
2022/02/10 02:24:28;;;;;;;23.27;16.42;;;;;;;;;;5026947;28;20430;-82
2022/02/10 02:27:03;;;;;;;24.48;15.52;;;;;;;;;;5024989;28;20187;-81
2022/02/10 02:29:38;;;;;;;20.67;16.55;;;;;;;;;;5046104;28;20541;-82
2022/02/10 02:32:11;;;;;;;21.70;16.73;;;;;;;;;;5004571;28;20178;-82
2022/02/10 03:07:14;;;;;;;18.65;14.60;;;;;;;;;;5030279;28;20186;-84
2022/02/10 03:09:52;;;;;;;16.73;14.02;;;;;;;;;;5029718;28;20194;-82
2022/02/10 03:12:18;;;;;;;20.33;14.50;;;;;;;;;;5032314;28;20186;-81
2022/02/10 03:14:49;;;;;;;21.38;14.55;;;;;;;;;;5051880;28;20574;-82
2022/02/10 03:20:31;;;;;;;24.50;14.85;;;;;;;;;;5020730;28;20245;-82
2022/02/10 04:01:51;;;;;;;21.05;13.95;;;;;;;;;;5012289;28;20208;-85
2022/02/10 04:09:47;;;;;;;24.55;14.48;;;;;;;;;;5011613;28;20473;-83
2022/02/10 04:12:36;;;;;;;22.73;14.00;;;;;;;;;;5017330;28;20186;-84
2022/02/10 04:17:55;;;;;;;24.75;15.68;;;;;;;;;;5033224;28;20187;-84
2022/02/10 04:40:46;;;;;;;20.90;13.40;;;;;;;;;;5023826;28;20324;-83
2022/02/10 04:56:19;;;;;;;20.05;12.57;;;;;;;;;;5045372;28;20219;-85
2022/02/10 05:04:55;;;;;;;17.73;12.65;;;;;;;;;;5037298;28;20214;-84
2022/02/10 05:35:44;;;;;;;19.85;13.88;;;;;;;;;;5014534;28;20187;-83
2022/02/10 05:38:27;;;;;;;20.27;12.90;;;;;;;;;;5041953;28;20218;-82
2022/02/10 05:46:22;;;;;;;18.55;13.10;;;;;;;;;;5021216;28;20190;-84
2022/02/10 08:56:06;;;;;;;26.52;16.98;;;;;;;;;;5018622;28;20242;-82
2022/02/10 09:04:18;;;;;;;22.60;14.38;;;;;;;;;;5017792;28;20221;-84
2022/02/10 09:07:33;;;;;;;24.20;14.45;;;;;;;;;;5019244;28;20652;-83
2022/02/10 09:10:13;;;;;;;26.38;14.98;;;;;;;;;;5020223;28;20655;-84
2022/02/10 09:15:43;;;;;;;25.13;16.17;;;;;;;;;;5020992;28;20222;-81
2022/02/10 09:56:10;;;;;;;15.95;13.07;;;;;;;;;;5013248;28;20175;-87
2022/02/10 10:01:28;;;;;;;18.50;12.38;;;;;;;;;;5014899;28;20673;-84
2022/02/10 10:03:57;;;;;;;19.58;11.95;;;;;;;;;;5048987;28;20217;-85
2022/02/10 10:07:16;;;;;;;17.63;10.80;;;;;;;;;;5040470;28;20179;-84
2022/02/10 10:14:44;;;;;;;16.95;11.43;;;;;;;;;;5022632;28;20229;-86
2022/02/10 10:21:04;;;;;;;15.73;10.45;;;;;;;;;;5004669;28;20206;-85
2022/02/10 10:23:21;;;;;;;15.07;9.95;;;;;;;;;;5009617;28;20214;-84
2022/02/10 10:50:52;;;;;;;11.80;9.57;;;;;;;;;;4984355;28;20198;-84
2022/02/10 10:53:45;;;;;;;11.98;8.75;;;;;;;;;;4963123;28;20259;-85
2022/02/10 11:37:40;;;;;;;8.43;7.07;;;;;;;;;;4944566;29;20249;-85
2022/02/10 11:40:11;;;;;;;10.82;8.35;;;;;;;;;;4944354;29;20298;-82
2022/02/10 11:42:48;;;;;;;8.57;7.10;;;;;;;;;;4942706;29;20271;-82
2022/02/10 11:48:32;;;;;;;9.20;7.55;;;;;;;;;;4944003;29;20220;-86
2022/02/10 14:12:55;;;;;;;5.95;4.65;;;;;;;;;;5010268;28;20190;-82
2022/02/10 14:15:40;;;;;;;4.20;3.80;;;;;;;;;;5027881;28;20190;-81
2022/02/10 14:18:14;;;;;;;6.45;4.30;;;;;;;;;;5024881;28;20273;-82
2022/02/10 14:25:49;;;;;;;10.45;4.35;;;;;;;;;;5023739;28;20552;-83
2022/02/10 14:28:16;;;;;;;3.45;3.15;;;;;;;;;;5011059;28;20194;-87
2022/02/10 14:30:42;;;;;;;4.20;3.80;;;;;;;;;;5024408;28;20187;-84
2022/02/10 14:33:08;;;;;;;11.82;9.48;;;;;;;;;;5009497;28;20179;-84
2022/02/10 14:35:50;;;;;;;4.07;3.17;;;;;;;;;;5024092;28;20288;-84
2022/02/10 14:38:34;;;;;;;4.78;3.50;;;;;;;;;;5067993;28;20228;-83
2022/02/10 15:12:26;;;;;;;8.57;5.78;;;;;;;;;;5020851;28;20225;-80
2022/02/10 16:17:46;;;;;;;4.78;3.85;;;;;;;;;;5015349;28;20445;-85
2022/02/10 16:20:18;;;;;;;8.38;4.93;;;;;;;;;;5007583;28;20171;-83
2022/02/10 16:22:59;;;;;;;4.43;3.97;;;;;;;;;;5020409;28;20303;-84
2022/02/10 16:25:26;;;;;;;10.88;4.00;;;;;;;;;;5035824;28;20194;-83
2022/02/10 16:28:00;;;;;;;6.88;4.60;;;;;;;;;;5018796;28;20175;-86
2022/02/10 16:30:26;;;;;;;4.35;3.92;;;;;;;;;;5030705;28;20277;-84
2022/02/10 16:33:19;;;;;;;9.88;7.28;;;;;;;;;;5018338;28;20178;-82
2022/02/10 16:35:51;;;;;;;6.32;4.88;;;;;;;;;;5024054;28;20199;-83
2022/02/10 16:38:17;;;;;;;9.73;8.73;;;;;;;;;;5049785;28;20222;-84
2022/02/10 16:40:45;;;;;;;13.52;8.23;;;;;;;;;;5020323;28;20300;-82
2022/02/10 16:43:13;;;;;;;5.90;4.40;;;;;;;;;;5019973;28;20240;-82
2022/02/10 16:45:39;;;;;;;8.23;5.57;;;;;;;;;;5033714;28;20574;-85
2022/02/10 16:48:06;;;;;;;8.02;6.13;;;;;;;;;;5026939;28;20221;-83
2022/02/10 16:50:43;;;;;;;8.43;5.10;;;;;;;;;;5053197;28;20196;-85
2022/02/10 16:53:11;;;;;;;7.13;5.70;;;;;;;;;;5031756;28;20182;-87
2022/02/10 16:55:45;;;;;;;6.57;5.55;;;;;;;;;;5029986;28;20544;-87
2022/02/10 17:20:39;;;;;;;2.55;2.20;;;;;;;;;;4983012;28;20770;-82
2022/02/10 17:26:01;;;;;;;3.97;2.03;;;;;;;;;;4983918;28;20605;-83
2022/02/10 17:28:27;;;;;;;1.90;1.55;;;;;;;;;;4981845;28;20198;-83
2022/02/10 17:31:22;;;;;;;2.90;2.10;;;;;;;;;;4987038;28;20192;-83
2022/02/10 17:36:43;;;;;;;5.07;2.83;;;;;;;;;;4981304;28;20259;-84
2022/02/10 17:52:45;;;;;;;2.88;2.30;;;;;;;;;;5021941;28;20229;-83
2022/02/10 17:55:12;;;;;;;5.38;3.17;;;;;;;;;;5054625;28;20185;-84
2022/02/10 17:57:38;;;;;;;3.53;1.83;;;;;;;;;;5024434;28;20210;-82
2022/02/10 18:00:06;;;;;;;3.67;2.20;;;;;;;;;;5037124;28;20214;-83
2022/02/10 18:02:32;;;;;;;3.83;2.33;;;;;;;;;;5021780;28;20209;-85
2022/02/10 18:05:00;;;;;;;2.15;1.95;;;;;;;;;;5022476;28;20179;-88
2022/02/10 18:07:26;;;;;;;4.13;2.30;;;;;;;;;;5054690;28;20178;-83
2022/02/10 18:10:18;;;;;;;2.92;2.60;;;;;;;;;;5019208;28;20636;-83
2022/02/10 18:15:51;;;;;;;3.17;2.08;;;;;;;;;;4977983;28;20668;-85
2022/02/10 18:18:28;;;;;;;5.45;2.40;;;;;;;;;;4964053;28;20188;-83
2022/02/10 18:21:06;;;;;;;2.15;1.65;;;;;;;;;;4965801;28;20195;-86
2022/02/10 18:23:38;;;;;;;4.03;2.25;;;;;;;;;;4963001;28;20222;-84
2022/02/10 18:26:09;;;;;;;2.30;1.90;;;;;;;;;;4981303;28;20693;-82
2022/02/10 18:29:02;;;;;;;2.33;1.70;;;;;;;;;;4963811;28;20211;-84
2022/02/10 19:09:24;;;;;;;5.82;2.20;;;;;;;;;;5015074;28;20187;-84
2022/02/10 19:11:57;;;;;;;4.13;2.35;;;;;;;;;;5055324;28;20182;-83
2022/02/10 19:14:24;;;;;;;3.10;1.60;;;;;;;;;;5013255;28;20189;-84
2022/02/10 19:16:50;;;;;;;4.18;2.10;;;;;;;;;;5039272;28;20213;-84
2022/02/10 19:19:16;;;;;;;2.85;1.95;;;;;;;;;;5038611;28;20194;-84
2022/02/10 19:21:42;;;;;;;2.20;2.00;;;;;;;;;;5038243;28;20194;-83
2022/02/10 19:24:08;;;;;;;3.77;1.80;;;;;;;;;;5020557;28;20237;-84
2022/02/10 19:26:34;;;;;;;5.03;1.80;;;;;;;;;;5035692;28;20444;-85
2022/02/10 19:29:00;;;;;;;3.60;1.75;;;;;;;;;;5031230;28;20427;-84
2022/02/10 19:31:29;;;;;;;1.90;1.40;;;;;;;;;;5013583;28;20273;-84
2022/02/10 19:33:54;;;;;;;1.60;1.50;;;;;;;;;;5044181;28;20383;-84
2022/02/10 19:36:21;;;;;;;2.10;1.90;;;;;;;;;;5045227;28;20190;-83
2022/02/10 19:38:47;;;;;;;2.72;2.03;;;;;;;;;;5038623;28;20281;-81
2022/02/10 19:41:13;;;;;;;1.35;1.25;;;;;;;;;;5009351;28;20225;-85
2022/02/10 19:43:40;;;;;;;3.00;2.15;;;;;;;;;;5037980;28;20630;-83
2022/02/10 19:46:06;;;;;;;1.90;1.33;;;;;;;;;;5037453;28;20186;-83
2022/02/10 19:48:32;;;;;;;1.95;1.40;;;;;;;;;;5040614;28;20204;-82
2022/02/10 19:50:58;;;;;;;1.85;1.75;;;;;;;;;;5053940;28;20277;-81
2022/02/10 19:53:24;;;;;;;1.63;1.52;;;;;;;;;;5024401;28;20706;-81
2022/02/10 19:55:52;;;;;;;2.10;1.70;;;;;;;;;;5027492;28;20178;-82
2022/02/10 19:58:22;;;;;;;4.97;2.60;;;;;;;;;;5025094;28;20208;-81
2022/02/10 20:00:49;;;;;;;4.07;2.10;;;;;;;;;;5024423;28;20190;-81
2022/02/10 20:03:21;;;;;;;3.13;2.15;;;;;;;;;;5040653;28;20207;-82
2022/02/10 20:05:50;;;;;;;2.10;1.90;;;;;;;;;;5023088;28;20179;-82
2022/02/10 20:08:17;;;;;;;4.25;1.75;;;;;;;;;;5038521;28;20174;-82
2022/02/10 20:10:43;;;;;;;4.55;2.70;;;;;;;;;;5056598;28;20242;-82
2022/02/10 20:13:15;;;;;;;4.28;2.60;;;;;;;;;;5015755;28;20182;-83
2022/02/10 20:15:42;;;;;;;3.00;2.50;;;;;;;;;;5016582;28;20255;-83
2022/02/10 20:18:10;;;;;;;2.45;2.20;;;;;;;;;;5052135;28;20191;-82
2022/02/10 20:20:36;;;;;;;2.70;1.95;;;;;;;;;;5037252;28;20190;-81
2022/02/10 20:23:02;;;;;;;2.30;2.10;;;;;;;;;;5037774;28;20290;-82
2022/02/10 20:25:28;;;;;;;3.22;1.95;;;;;;;;;;5031179;28;20175;-82
2022/02/10 20:27:54;;;;;;;6.95;2.50;;;;;;;;;;5031133;28;20190;-82
2022/02/10 20:30:20;;;;;;;2.17;1.95;;;;;;;;;;5049647;28;20189;-83
2022/02/10 20:32:46;;;;;;;4.43;2.97;;;;;;;;;;5017851;28;20269;-82
2022/02/10 20:35:14;;;;;;;2.83;2.50;;;;;;;;;;5013525;28;20429;-83
2022/02/10 20:37:40;;;;;;;2.80;2.60;;;;;;;;;;5033788;28;20247;-83
2022/02/10 20:40:06;;;;;;;6.05;3.88;;;;;;;;;;5054476;28;20201;-83
2022/02/10 20:42:34;;;;;;;3.13;2.80;;;;;;;;;;5034088;28;20207;-84
2022/02/10 20:45:00;;;;;;;3.45;3.15;;;;;;;;;;5050051;28;20196;-83
2022/02/10 20:47:27;;;;;;;3.55;3.25;;;;;;;;;;5020516;28;20175;-83
2022/02/10 20:49:53;;;;;;;4.25;3.80;;;;;;;;;;5042805;28;20170;-83
2022/02/10 20:52:19;;;;;;;3.90;3.40;;;;;;;;;;5021704;28;20348;-83
2022/02/10 20:54:46;;;;;;;4.10;3.22;;;;;;;;;;5017635;28;20270;-83
2022/02/10 20:57:12;;;;;;;4.47;1.92;;;;;;;;;;5043422;28;20194;-84
2022/02/10 21:02:09;;;;;;;4.82;2.25;;;;;;;;;;5040197;28;20189;-84
2022/02/10 21:04:41;;;;;;;2.60;2.42;;;;;;;;;;5019314;28;20226;-84
2022/02/10 21:07:20;;;;;;;2.97;2.30;;;;;;;;;;5013769;28;20207;-83
2022/02/10 21:12:18;;;;;;;2.72;2.03;;;;;;;;;;5020727;28;20663;-83
2022/02/10 21:14:45;;;;;;;4.43;3.35;;;;;;;;;;5007064;28;20190;-83
2022/02/10 21:17:14;;;;;;;3.78;3.25;;;;;;;;;;5037638;28;20237;-83
2022/02/10 21:19:41;;;;;;;4.65;3.35;;;;;;;;;;5015415;28;20190;-83
2022/02/10 21:22:12;;;;;;;3.33;2.78;;;;;;;;;;5013990;28;20223;-84
2022/02/10 21:24:43;;;;;;;3.90;3.58;;;;;;;;;;5016149;28;20207;-84
2022/02/10 21:29:41;;;;;;;3.50;3.20;;;;;;;;;;5021244;28;20225;-84
2022/02/10 21:32:07;;;;;;;4.28;3.50;;;;;;;;;;5021824;28;20175;-85
2022/02/10 21:34:47;;;;;;;6.05;3.42;;;;;;;;;;5053548;28;20175;-84
2022/02/10 21:37:16;;;;;;;4.75;3.60;;;;;;;;;;5029872;28;20520;-85
2022/02/10 22:17:05;;;;;;;4.60;2.53;;;;;;;;;;5020933;28;20198;-85
2022/02/10 22:19:42;;;;;;;3.92;2.75;;;;;;;;;;5035137;28;20184;-84
2022/02/10 22:22:12;;;;;;;4.28;3.17;;;;;;;;;;5034868;28;20201;-84
2022/02/10 22:24:38;;;;;;;5.70;3.25;;;;;;;;;;5020945;28;20267;-84
2022/02/10 22:27:05;;;;;;;5.18;3.88;;;;;;;;;;5037484;28;20200;-85
2022/02/10 22:29:36;;;;;;;6.95;4.32;;;;;;;;;;5035983;28;20179;-85
2022/02/10 22:35:02;;;;;;;7.93;6.63;;;;;;;;;;4969421;28;20185;-89
2022/02/10 22:37:28;;;;;;;10.82;6.22;;;;;;;;;;4994634;28;20195;-86
2022/02/10 22:39:55;;;;;;;6.30;5.50;;;;;;;;;;4978130;28;20201;-86
2022/02/10 22:42:25;;;;;;;10.38;5.95;;;;;;;;;;4964801;28;20184;-89
2022/02/10 22:44:51;;;;;;;7.15;6.40;;;;;;;;;;4967053;28;20207;-85
2022/02/10 22:47:17;;;;;;;8.82;6.25;;;;;;;;;;4982012;28;20179;-86
2022/02/10 22:49:43;;;;;;;10.60;6.10;;;;;;;;;;4963833;28;20650;-86
2022/02/10 22:52:13;;;;;;;8.10;6.70;;;;;;;;;;4962988;28;20208;-86
2022/02/10 22:54:39;;;;;;;10.68;7.13;;;;;;;;;;4971843;28;20199;-87
2022/02/10 22:57:05;;;;;;;9.02;6.80;;;;;;;;;;4958977;28;20200;-86
2022/02/10 22:59:31;;;;;;;6.57;5.70;;;;;;;;;;4980433;28;20192;-87
2022/02/10 23:01:57;;;;;;;5.90;4.13;;;;;;;;;;4967434;28;20275;-87
2022/02/10 23:04:23;;;;;;;7.28;5.50;;;;;;;;;;4981488;28;20255;-86
2022/02/10 23:06:54;;;;;;;10.60;5.50;;;;;;;;;;4996023;28;20219;-87
2022/02/10 23:09:27;;;;;;;6.97;4.05;;;;;;;;;;4969426;28;20192;-86
2022/02/10 23:11:53;;;;;;;6.18;4.10;;;;;;;;;;5019770;28;20179;-87
2022/02/10 23:14:20;;;;;;;6.07;4.65;;;;;;;;;;5039013;28;20182;-87
2022/02/10 23:16:46;;;;;;;6.07;4.15;;;;;;;;;;5043099;28;20195;-88
2022/02/10 23:19:12;;;;;;;5.82;4.30;;;;;;;;;;5044683;28;20214;-86
2022/02/10 23:21:38;;;;;;;6.97;4.43;;;;;;;;;;5023547;28;20191;-86
2022/02/10 23:24:05;;;;;;;6.53;4.47;;;;;;;;;;5016647;28;20233;-86
2022/02/10 23:26:31;;;;;;;6.05;4.50;;;;;;;;;;5055070;28;20194;-86
2022/02/10 23:28:57;;;;;;;6.05;4.28;;;;;;;;;;5025012;28;20163;-87
2022/02/10 23:31:25;;;;;;;4.90;4.40;;;;;;;;;;5054279;28;20202;-86
2022/02/10 23:33:55;;;;;;;6.28;3.72;;;;;;;;;;5020221;28;20183;-87
2022/02/10 23:43:44;;;;;;;5.07;4.57;;;;;;;;;;5011608;28;20203;-86
2022/02/10 23:46:11;;;;;;;8.32;4.80;;;;;;;;;;5023882;28;20225;-87
2022/02/10 23:48:38;;;;;;;4.80;4.38;;;;;;;;;;5039819;28;20206;-86
2022/02/10 23:51:06;;;;;;;5.32;4.05;;;;;;;;;;5038945;28;20190;-86
2022/02/10 23:53:32;;;;;;;6.35;4.65;;;;;;;;;;5021871;28;20214;-85
2022/02/10 23:56:00;;;;;;;4.47;3.85;;;;;;;;;;5056868;28;20185;-86
2022/02/10 23:58:42;;;;;;;7.70;4.32;;;;;;;;;;5012196;28;20182;-87
